Forside
METAR-TAF:

METAR-TAF

Lufthavne :

Pohnpei, Mikronesien

Breddekreds: 06-59N, længdekreds: 158-12E, højde: 2 m

Aktuelle vejr

Denne rapport blev lavet for 26 minutter siden, kl. 02:53 UTC
Vind 7 kt fra østnordøst
Temperatur 31°C
Fugtighed 71%
Tryk 1007 hPa
Sigt: 24.1 km
Nogle få skyer i en højde af 1800 ft
Spredte skyer i en højde af 13000 ft
Brudte skyer i en højde af 30000 ft

METAR: PTPN 160253Z 07007KT 15SM FEW018 SCT130 BKN300 31/25 A2974

Tid: 14:19 (03:19 UTC)

Vejrudsigter

Denne rapport blev lavet for 3 timer og 49 minutter siden, kl. 23:30 UTC
Foreløbig gælder fra 16 på 00 UTC til 16 på 24 UTC
Vind 6 kt fra varierende retninger
Sigt: 10 km
Nogle få skyer i en højde af 1800 ft
Spredte skyer i en højde af 5000 ft
Brudte skyer i en højde af 14000 ft
byger i nærheden

TAF: PTPN 152330Z 1600/1624 VRB06KT P6SM VCSH FEW018 SCT050 BKN140

Vejrobservationer og prognoser fra mere end 4000 lufthavne (METAR og TAF).

De gule og røde prikker repræsenterer de meteorologiske stationer.

Flyt musen over at se navnet på stationen.

Så klik over at se vejr observationer og prognoser.

At skifte det kort: Klik på de grønne knapper med et sort kors for at zoome ind; på den grønne knap med en bindestreg for at zoome ud; eller på de grønne pile for tilstødende kort.


METAR-TAF: